Time;durP1;ratioP1;P1;durP2;ratioP2;P2;SDS_P1;SDS_P2;PMS_P1;PMS_P2;Temp;Humidity;BMP_temperature;BMP_pressure;BME280_temperature;BME280_humidity;BME280_pressure;Samples;Min_cycle;Max_cycle;Signal;HPM_P1;HPM_P2
2022/12/04 00:00:33;;;;;;;13.52;8.88;;;7.00;64.00;;;;;;5028601;28;20466;-75
2022/12/04 00:03:18;;;;;;;11.93;8.65;;;6.90;63.80;;;;;;5010435;28;20091;-76
2022/12/04 00:06:08;;;;;;;16.38;8.88;;;6.90;63.80;;;;;;5011881;28;20045;-76
2022/12/04 00:08:54;;;;;;;14.07;8.98;;;6.90;63.80;;;;;;5006762;28;20125;-73
2022/12/04 00:11:38;;;;;;;12.80;8.80;;;6.90;63.90;;;;;;5008504;28;20053;-76
2022/12/04 00:14:23;;;;;;;14.35;8.98;;;6.90;63.90;;;;;;5008284;28;20103;-75
2022/12/04 00:17:08;;;;;;;13.65;8.93;;;6.90;63.90;;;;;;5006435;28;20437;-75
2022/12/04 00:19:52;;;;;;;13.98;8.60;;;6.90;63.90;;;;;;5006638;28;20049;-77
2022/12/04 00:22:37;;;;;;;11.82;8.43;;;6.90;63.90;;;;;;5006549;28;20044;-76
2022/12/04 00:25:21;;;;;;;12.93;8.80;;;6.90;63.90;;;;;;5006564;28;20416;-75
2022/12/04 00:28:06;;;;;;;10.65;7.68;;;6.90;63.90;;;;;;5008453;28;20098;-74
2022/12/04 00:30:51;;;;;;;16.50;8.90;;;6.80;63.70;;;;;;5007471;28;20041;-72
2022/12/04 00:33:36;;;;;;;14.82;9.32;;;6.80;63.70;;;;;;5008081;28;20061;-73
2022/12/04 00:36:23;;;;;;;11.95;9.25;;;6.80;63.80;;;;;;5007258;28;20096;-75
2022/12/04 00:39:08;;;;;;;13.50;8.60;;;6.90;63.90;;;;;;5017027;28;20064;-72
2022/12/04 00:41:52;;;;;;;11.50;7.35;;;6.80;63.70;;;;;;5027708;28;20620;-73
2022/12/04 00:44:37;;;;;;;11.80;7.90;;;6.80;63.70;;;;;;5027904;28;20036;-77
2022/12/04 00:47:22;;;;;;;15.25;7.32;;;6.80;63.70;;;;;;5007619;28;20052;-78
2022/12/04 00:50:07;;;;;;;11.77;7.70;;;6.70;63.60;;;;;;5007897;28;20444;-77
2022/12/04 00:52:51;;;;;;;10.32;7.90;;;6.70;63.60;;;;;;5007190;28;20184;-77
2022/12/04 00:55:40;;;;;;;11.95;7.43;;;6.70;63.60;;;;;;5007209;28;20057;-76
2022/12/04 00:58:25;;;;;;;14.68;8.80;;;6.70;63.60;;;;;;5020495;28;20084;-75
2022/12/04 01:01:12;;;;;;;15.10;7.95;;;6.70;63.70;;;;;;5007660;28;20060;-77
2022/12/04 01:03:57;;;;;;;11.95;8.02;;;6.60;63.50;;;;;;5006993;28;20690;-77
2022/12/04 01:06:42;;;;;;;10.82;7.70;;;6.60;63.50;;;;;;5007047;28;20045;-77
2022/12/04 01:09:26;;;;;;;12.82;8.52;;;6.60;63.60;;;;;;5007337;28;20045;-76
2022/12/04 01:12:11;;;;;;;10.13;7.57;;;6.60;63.60;;;;;;5000601;28;20084;-77
2022/12/04 01:14:56;;;;;;;11.02;7.32;;;6.50;63.50;;;;;;5007690;28;20551;-77
2022/12/04 01:17:40;;;;;;;11.60;7.97;;;6.50;63.50;;;;;;5006682;28;20048;-77
2022/12/04 01:20:25;;;;;;;12.10;8.38;;;6.50;63.50;;;;;;5004634;28;20049;-76
2022/12/04 01:23:09;;;;;;;12.25;7.75;;;6.50;63.50;;;;;;5007188;28;20049;-76
2022/12/04 01:25:56;;;;;;;11.55;8.52;;;6.50;63.50;;;;;;5006475;28;20072;-78
2022/12/04 01:28:41;;;;;;;13.07;7.15;;;6.50;63.50;;;;;;5006752;28;20041;-77
2022/12/04 01:31:26;;;;;;;10.77;7.15;;;6.50;63.50;;;;;;5024122;28;20042;-78
2022/12/04 01:34:11;;;;;;;12.48;7.63;;;6.50;63.40;;;;;;5019350;28;20048;-78
2022/12/04 01:36:56;;;;;;;12.85;8.27;;;6.50;63.40;;;;;;5006167;28;20103;-78
2022/12/04 01:39:41;;;;;;;11.70;7.35;;;6.60;63.60;;;;;;5019748;28;20673;-79
2022/12/04 01:42:26;;;;;;;11.07;8.30;;;6.60;63.50;;;;;;5005548;28;20418;-76
2022/12/04 01:45:37;;;;;;;14.50;7.72;;;6.60;63.50;;;;;;5006953;28;20121;-74
2022/12/04 01:48:22;;;;;;;10.52;7.03;;;6.60;63.50;;;;;;5021538;28;20045;-78
2022/12/04 01:51:17;;;;;;;13.73;7.60;;;6.60;63.50;;;;;;5011246;28;20505;-77
2022/12/04 01:54:06;;;;;;;11.77;7.78;;;6.60;63.50;;;;;;5006539;28;20088;-77
2022/12/04 01:57:19;;;;;;;10.77;6.85;;;6.60;63.40;;;;;;5007270;28;20072;-76
2022/12/04 02:00:08;;;;;;;11.65;7.10;;;6.60;63.50;;;;;;5006293;28;20048;-75
2022/12/04 02:02:54;;;;;;;9.77;7.78;;;6.60;63.50;;;;;;5007104;28;20057;-74
2022/12/04 02:05:38;;;;;;;10.65;7.32;;;6.50;63.30;;;;;;5021123;28;20539;-74
2022/12/04 02:08:24;;;;;;;13.23;7.35;;;6.50;63.30;;;;;;5016938;28;20095;-75
2022/12/04 02:11:25;;;;;;;12.10;7.72;;;6.60;63.50;;;;;;5014801;28;20398;-74
2022/12/04 02:14:54;;;;;;;8.82;6.93;;;6.50;63.30;;;;;;5017866;28;20041;-71
2022/12/04 02:17:54;;;;;;;10.93;7.82;;;6.50;63.90;;;;;;5009604;28;20469;-72
2022/12/04 02:20:56;;;;;;;11.90;7.20;;;6.50;63.40;;;;;;5003910;28;20041;-72
2022/12/04 02:23:59;;;;;;;12.80;8.45;;;6.50;63.40;;;;;;5005512;28;20515;-74
2022/12/04 02:26:48;;;;;;;12.00;7.55;;;6.40;63.30;;;;;;5005270;28;20431;-72
2022/12/04 02:29:39;;;;;;;11.90;7.93;;;6.40;63.30;;;;;;5017913;28;20580;-73
2022/12/04 02:32:30;;;;;;;12.73;7.93;;;6.40;63.40;;;;;;5005245;28;20103;-75
2022/12/04 02:35:25;;;;;;;11.25;7.13;;;6.30;63.20;;;;;;5005395;28;20457;-76
2022/12/04 02:38:32;;;;;;;13.85;7.47;;;6.30;63.30;;;;;;5004719;28;20172;-76
2022/12/04 02:41:56;;;;;;;11.95;7.45;;;6.30;63.30;;;;;;5004236;28;20487;-75
2022/12/04 02:44:58;;;;;;;14.80;8.00;;;6.20;63.10;;;;;;4999246;28;20228;-76
2022/12/04 02:47:45;;;;;;;9.80;7.22;;;6.20;63.20;;;;;;5003076;23;20886;-80
2022/12/04 02:50:31;;;;;;;13.77;7.97;;;6.20;63.20;;;;;;4986633;28;20072;-81
2022/12/04 02:53:21;;;;;;;11.98;7.82;;;6.10;63.00;;;;;;4987445;28;20577;-83
2022/12/04 02:56:09;;;;;;;13.93;8.20;;;6.10;63.10;;;;;;4988805;28;20116;-82
2022/12/04 02:59:20;;;;;;;16.80;8.70;;;6.10;63.20;;;;;;4991793;28;20045;-83
2022/12/04 03:02:34;;;;;;;12.75;8.23;;;6.10;63.20;;;;;;5008139;28;20554;-81
2022/12/04 03:05:24;;;;;;;15.77;8.52;;;6.00;63.00;;;;;;5008402;28;20535;-80
2022/12/04 03:08:18;;;;;;;14.60;9.70;;;6.00;63.10;;;;;;4998126;28;20044;-81
2022/12/04 03:11:03;;;;;;;12.68;8.77;;;6.00;63.20;;;;;;5006041;28;20724;-80
2022/12/04 03:13:57;;;;;;;11.75;7.85;;;5.90;63.00;;;;;;4988536;28;20054;-81
2022/12/04 03:16:42;;;;;;;12.30;8.02;;;5.90;63.10;;;;;;4982219;28;20052;-80
2022/12/04 03:19:33;;;;;;;11.73;8.75;;;5.80;62.90;;;;;;4988031;28;20042;-80
2022/12/04 03:22:19;;;;;;;12.20;8.27;;;5.80;63.00;;;;;;4986723;28;20528;-80
2022/12/04 03:25:06;;;;;;;11.10;9.45;;;5.80;63.00;;;;;;4988489;28;20037;-79
2022/12/04 03:28:01;;;;;;;11.48;8.80;;;5.80;63.00;;;;;;4988251;28;20157;-80
2022/12/04 03:30:56;;;;;;;14.82;8.25;;;5.80;63.10;;;;;;5003441;28;20056;-79
2022/12/04 03:33:45;;;;;;;10.95;7.93;;;5.70;62.90;;;;;;4988205;28;20535;-80
2022/12/04 03:36:37;;;;;;;13.23;8.98;;;5.80;63.20;;;;;;4987596;28;20137;-80
2022/12/04 03:39:28;;;;;;;18.45;9.63;;;5.70;63.00;;;;;;5001488;28;20061;-80
2022/12/04 03:42:17;;;;;;;13.25;9.25;;;5.70;63.50;;;;;;5000169;28;20068;-79
2022/12/04 03:45:23;;;;;;;12.90;8.95;;;5.70;63.10;;;;;;4991940;28;20089;-79
2022/12/04 03:48:20;;;;;;;11.30;8.25;;;5.70;63.10;;;;;;5003301;28;20136;-80
2022/12/04 03:52:01;;;;;;;15.07;9.75;;;5.70;63.10;;;;;;5010618;28;20504;-79
2022/12/04 03:54:55;;;;;;;15.27;10.15;;;5.60;63.00;;;;;;4942501;28;20043;-79
2022/12/04 03:57:44;;;;;;;14.02;10.18;;;5.60;63.00;;;;;;4931018;29;20062;-80
2022/12/04 04:00:31;;;;;;;13.45;9.52;;;5.60;63.10;;;;;;4990682;28;20061;-80
2022/12/04 04:03:28;;;;;;;13.85;9.68;;;5.60;63.60;;;;;;4990895;28;20108;-79
2022/12/04 04:06:33;;;;;;;12.82;9.40;;;5.60;63.20;;;;;;5005076;28;20041;-80
2022/12/04 04:09:21;;;;;;;16.25;10.13;;;5.60;63.20;;;;;;5011965;28;20076;-80
2022/12/04 04:12:14;;;;;;;13.48;9.85;;;5.60;63.10;;;;;;4991559;28;20080;-80
2022/12/04 04:24:45;;;;;;;12.32;9.57;;;5.60;63.10;;;;;;4991297;28;19916;-78
2022/12/04 04:27:30;;;;;;;12.18;9.15;;;5.60;63.10;;;;;;4991119;28;20045;-80
2022/12/04 04:30:15;;;;;;;12.00;9.70;;;5.70;63.20;;;;;;4991329;28;20187;-80
2022/12/04 04:33:12;;;;;;;12.82;9.82;;;5.60;63.10;;;;;;4990817;28;20093;-79
2022/12/04 04:36:07;;;;;;;17.25;10.73;;;5.70;63.30;;;;;;5006018;28;20076;-78
2022/12/04 04:39:01;;;;;;;14.35;10.85;;;5.70;63.30;;;;;;4994675;28;20060;-80
2022/12/04 04:41:54;;;;;;;13.70;10.10;;;5.70;63.30;;;;;;5004764;28;20084;-80
2022/12/04 04:44:41;;;;;;;14.43;9.93;;;5.70;63.40;;;;;;4991294;28;20041;-80
2022/12/04 04:48:12;;;;;;;12.95;9.50;;;5.70;63.40;;;;;;4990241;28;20057;-80
2022/12/04 04:50:58;;;;;;;15.38;9.68;;;5.70;63.40;;;;;;4969609;28;20357;-80
2022/12/04 04:53:48;;;;;;;13.70;10.50;;;5.70;63.30;;;;;;4990427;28;20053;-81
2022/12/04 04:56:47;;;;;;;15.88;9.90;;;5.70;63.40;;;;;;4989600;28;20093;-82
2022/12/04 04:59:33;;;;;;;12.85;10.00;;;5.70;63.40;;;;;;4989596;28;20118;-81
2022/12/04 05:02:17;;;;;;;12.43;9.90;;;5.70;63.40;;;;;;4990345;28;20127;-82
2022/12/04 05:05:02;;;;;;;11.40;9.30;;;5.70;63.40;;;;;;4990780;28;20038;-81
2022/12/04 05:07:47;;;;;;;9.57;8.57;;;5.70;63.40;;;;;;4994543;28;20068;-81
2022/12/04 05:10:32;;;;;;;13.25;9.32;;;5.70;63.40;;;;;;5010371;28;20052;-81
2022/12/04 05:13:17;;;;;;;9.85;8.85;;;5.80;64.10;;;;;;5000889;28;20129;-81
2022/12/04 05:16:07;;;;;;;11.43;8.60;;;5.80;63.60;;;;;;4989841;28;20053;-81
2022/12/04 05:21:56;;;;;;;9.38;8.18;;;5.80;64.10;;;;;;4995686;28;20045;-80
2022/12/04 05:24:40;;;;;;;11.07;8.73;;;5.80;63.60;;;;;;4989454;28;20232;-80
2022/12/04 05:27:27;;;;;;;11.02;8.02;;;5.80;63.60;;;;;;4989813;28;20053;-81
2022/12/04 05:30:12;;;;;;;10.35;7.90;;;5.80;63.60;;;;;;5008719;28;20056;-80
2022/12/04 05:32:56;;;;;;;9.45;7.35;;;5.80;63.60;;;;;;4998523;28;20576;-81
2022/12/04 05:35:41;;;;;;;10.10;8.63;;;5.80;63.70;;;;;;4988549;28;20100;-80
2022/12/04 05:38:26;;;;;;;10.90;8.00;;;5.80;63.60;;;;;;4992987;28;20040;-82
2022/12/04 05:41:10;;;;;;;10.63;7.60;;;5.90;63.80;;;;;;4988652;28;20124;-81
2022/12/04 05:43:55;;;;;;;11.85;7.95;;;5.90;63.80;;;;;;4990321;28;20536;-81
2022/12/04 05:46:39;;;;;;;8.52;7.32;;;5.80;63.60;;;;;;4993576;28;20084;-81
2022/12/04 05:49:27;;;;;;;10.38;7.80;;;5.90;63.80;;;;;;5004346;28;20087;-81
2022/12/04 05:52:11;;;;;;;9.40;7.30;;;5.90;63.80;;;;;;4979955;28;20046;-80
2022/12/04 05:54:56;;;;;;;9.32;7.10;;;5.90;63.80;;;;;;4985051;28;20049;-81
2022/12/04 05:57:41;;;;;;;11.27;7.60;;;5.90;63.80;;;;;;4987026;28;20045;-82
2022/12/04 06:00:26;;;;;;;9.10;6.68;;;5.90;63.80;;;;;;4998174;28;20089;-80
2022/12/04 06:03:10;;;;;;;8.57;6.97;;;5.90;63.80;;;;;;4986878;28;20054;-80
2022/12/04 06:05:55;;;;;;;9.38;7.55;;;5.90;63.80;;;;;;4984406;28;20045;-80
2022/12/04 06:08:39;;;;;;;11.20;6.95;;;5.90;63.80;;;;;;4992175;28;20060;-81
2022/12/04 06:11:27;;;;;;;9.60;7.82;;;5.90;63.80;;;;;;5004525;28;20107;-81
2022/12/04 06:14:13;;;;;;;10.98;7.35;;;5.90;63.80;;;;;;5006086;28;20727;-80
2022/12/04 06:16:58;;;;;;;10.43;7.43;;;5.90;63.80;;;;;;5008273;28;20043;-80
2022/12/04 06:19:42;;;;;;;9.98;7.50;;;6.00;63.90;;;;;;5003262;28;20053;-81
2022/12/04 06:22:27;;;;;;;9.50;7.53;;;6.00;63.90;;;;;;4982739;28;20619;-80
2022/12/04 06:25:11;;;;;;;11.40;7.07;;;5.90;63.70;;;;;;5004505;28;20286;-81
2022/12/04 06:27:56;;;;;;;11.02;7.55;;;6.00;63.90;;;;;;4999741;28;20057;-83
2022/12/04 06:30:41;;;;;;;10.13;7.55;;;6.00;63.90;;;;;;5003928;28;20040;-80
2022/12/04 06:33:25;;;;;;;9.18;7.35;;;6.00;63.90;;;;;;4984626;28;20045;-79
2022/12/04 06:36:17;;;;;;;8.63;7.13;;;6.00;63.90;;;;;;4997986;28;20416;-82
2022/12/04 06:39:02;;;;;;;9.82;7.82;;;6.00;63.90;;;;;;4986130;28;20391;-85
2022/12/04 06:41:46;;;;;;;10.00;7.82;;;6.00;63.90;;;;;;4983535;28;20615;-81
2022/12/04 06:44:31;;;;;;;11.52;7.95;;;6.00;63.80;;;;;;4984575;28;20505;-82
2022/12/04 06:47:16;;;;;;;8.93;7.20;;;6.00;63.80;;;;;;4984781;28;20564;-79
2022/12/04 06:50:01;;;;;;;12.90;7.22;;;6.00;63.80;;;;;;4986027;28;20502;-84
2022/12/04 06:52:45;;;;;;;8.45;6.78;;;6.00;63.80;;;;;;4988292;28;20088;-87
2022/12/04 06:55:30;;;;;;;10.68;7.60;;;6.00;63.80;;;;;;4996114;28;20048;-91
2022/12/04 06:58:14;;;;;;;10.57;7.93;;;6.00;63.80;;;;;;5011549;28;20124;-87
2022/12/04 07:01:04;;;;;;;11.45;8.20;;;6.00;63.80;;;;;;4984254;28;20505;-81
2022/12/04 07:03:50;;;;;;;10.43;7.22;;;6.00;63.70;;;;;;4985348;28;20033;-80
2022/12/04 07:06:36;;;;;;;10.38;7.70;;;6.00;63.70;;;;;;4993640;28;20056;-88
2022/12/04 07:09:20;;;;;;;12.18;7.75;;;6.00;63.70;;;;;;5003868;28;20049;-87
2022/12/04 07:12:05;;;;;;;11.80;7.78;;;6.00;63.70;;;;;;4987664;28;20050;-88
2022/12/04 07:14:50;;;;;;;13.70;7.43;;;6.00;63.70;;;;;;4989544;28;20040;-87
2022/12/04 07:17:34;;;;;;;10.20;8.43;;;5.90;63.50;;;;;;4985703;28;20089;-79
2022/12/04 07:20:18;;;;;;;13.73;8.40;;;6.00;63.70;;;;;;4994151;28;20422;-79
2022/12/04 07:23:03;;;;;;;13.02;8.80;;;5.90;63.50;;;;;;4988606;28;20064;-83
2022/12/04 07:25:47;;;;;;;13.48;9.05;;;5.90;63.50;;;;;;4983542;28;20044;-87
2022/12/04 07:28:32;;;;;;;11.63;9.68;;;5.90;63.50;;;;;;4997209;28;20048;-81
2022/12/04 07:31:20;;;;;;;12.18;8.95;;;6.00;63.70;;;;;;4994374;28;20041;-79
2022/12/04 07:34:05;;;;;;;12.95;8.02;;;6.00;63.70;;;;;;4988879;28;20073;-80
2022/12/04 07:36:49;;;;;;;12.32;9.05;;;5.90;63.50;;;;;;4986760;28;20097;-78
2022/12/04 07:39:34;;;;;;;9.75;7.22;;;6.00;63.60;;;;;;5004828;28;20084;-81
2022/12/04 07:42:19;;;;;;;14.73;9.90;;;6.00;63.80;;;;;;5007883;28;20053;-75
2022/12/04 07:45:04;;;;;;;14.02;9.13;;;6.10;64.10;;;;;;4999125;28;20091;-78
2022/12/04 07:47:48;;;;;;;12.95;8.48;;;6.10;64.10;;;;;;5001478;28;20072;-77
2022/12/04 07:50:33;;;;;;;12.80;9.38;;;6.10;64.00;;;;;;5006219;28;20120;-77
2022/12/04 07:53:17;;;;;;;14.73;9.98;;;6.10;64.00;;;;;;5005381;28;20149;-77
2022/12/04 07:56:03;;;;;;;12.50;8.60;;;6.20;64.10;;;;;;4981130;28;20529;-79
2022/12/04 07:58:48;;;;;;;14.25;10.18;;;6.10;64.00;;;;;;4997601;28;20121;-76
2022/12/04 08:01:32;;;;;;;11.52;9.63;;;6.10;64.00;;;;;;5005326;28;20112;-76
2022/12/04 08:04:17;;;;;;;14.75;9.27;;;6.10;63.90;;;;;;5007809;28;20069;-76
2022/12/04 08:07:01;;;;;;;16.73;10.70;;;6.10;64.00;;;;;;5005910;28;20045;-77
2022/12/04 08:09:46;;;;;;;14.05;9.82;;;6.10;63.90;;;;;;5004417;28;20121;-79
2022/12/04 08:12:32;;;;;;;15.57;10.48;;;6.10;63.90;;;;;;5003693;28;20452;-80
2022/12/04 08:15:16;;;;;;;15.68;11.13;;;6.10;63.90;;;;;;5006006;28;20524;-80
2022/12/04 08:18:00;;;;;;;15.07;11.10;;;6.10;63.90;;;;;;5001516;28;20166;-83
2022/12/04 08:20:45;;;;;;;15.13;11.07;;;6.10;63.90;;;;;;5003941;28;20321;-87
2022/12/04 08:23:30;;;;;;;18.52;10.75;;;6.10;63.90;;;;;;4973069;28;20089;-79
2022/12/04 08:26:16;;;;;;;17.10;10.75;;;6.10;63.90;;;;;;4981813;28;20186;-84
2022/12/04 08:29:01;;;;;;;19.52;11.07;;;6.10;63.90;;;;;;4998686;28;20088;-79
2022/12/04 08:31:46;;;;;;;19.25;11.88;;;6.00;63.60;;;;;;5004057;28;20046;-79
2022/12/04 08:34:31;;;;;;;19.42;12.38;;;6.00;63.60;;;;;;4986486;28;20089;-78
2022/12/04 08:37:15;;;;;;;17.38;11.35;;;6.10;63.80;;;;;;4985824;28;20037;-93
2022/12/04 08:40:00;;;;;;;17.40;12.00;;;6.10;63.80;;;;;;4992526;28;20536;-77
2022/12/04 08:42:44;;;;;;;17.70;12.68;;;6.10;63.70;;;;;;4989086;28;20045;-78
2022/12/04 08:45:29;;;;;;;19.20;13.30;;;6.10;63.70;;;;;;5007436;28;20639;-79
2022/12/04 08:48:13;;;;;;;18.30;12.02;;;6.10;63.70;;;;;;4998908;28;20111;-77
2022/12/04 08:50:58;;;;;;;16.90;12.05;;;6.10;63.70;;;;;;5002536;28;20093;-77
2022/12/04 08:53:43;;;;;;;21.13;13.60;;;6.10;63.70;;;;;;4987320;28;20109;-77
2022/12/04 08:56:29;;;;;;;19.63;13.63;;;6.10;63.60;;;;;;4987242;28;20323;-77
2022/12/04 08:59:13;;;;;;;19.33;13.18;;;6.10;63.60;;;;;;4992986;28;20239;-77
2022/12/04 09:01:57;;;;;;;18.60;13.45;;;6.10;63.60;;;;;;4988301;28;20045;-79
2022/12/04 09:04:42;;;;;;;17.52;12.75;;;6.10;63.60;;;;;;4997028;28;20412;-77
2022/12/04 09:07:27;;;;;;;19.75;13.35;;;6.10;63.60;;;;;;4997023;28;20073;-77
2022/12/04 09:10:12;;;;;;;18.25;12.90;;;6.10;63.50;;;;;;4994259;28;20119;-76
2022/12/04 09:12:56;;;;;;;19.25;13.15;;;6.10;63.50;;;;;;5005692;28;20146;-76
2022/12/04 09:15:41;;;;;;;20.00;13.80;;;6.10;63.50;;;;;;5025696;28;20069;-75
2022/12/04 09:18:26;;;;;;;17.27;13.85;;;6.10;63.50;;;;;;5015273;28;20082;-77
2022/12/04 09:21:13;;;;;;;19.50;12.68;;;6.10;63.50;;;;;;5023915;28;20068;-77
2022/12/04 09:23:58;;;;;;;18.75;13.10;;;6.20;63.70;;;;;;5010458;28;20036;-81
2022/12/04 09:26:43;;;;;;;20.88;13.73;;;6.10;63.50;;;;;;5007160;28;20054;-83
2022/12/04 09:29:28;;;;;;;20.20;12.65;;;6.20;63.70;;;;;;4996097;28;20068;-80
2022/12/04 09:32:12;;;;;;;18.85;12.80;;;6.20;63.60;;;;;;4987431;28;20106;-77
2022/12/04 09:34:57;;;;;;;18.65;13.35;;;6.20;63.50;;;;;;4986117;28;20173;-79
2022/12/04 09:37:42;;;;;;;20.65;12.65;;;6.30;63.70;;;;;;4986324;28;20080;-78
2022/12/04 09:40:38;;;;;;;19.35;13.38;;;6.30;63.60;;;;;;4984671;28;20121;-75
2022/12/04 09:43:28;;;;;;;20.45;14.73;;;6.30;63.50;;;;;;5002763;28;20044;-75
2022/12/04 09:46:28;;;;;;;19.85;13.25;;;6.30;63.50;;;;;;4991581;28;20401;-76
2022/12/04 09:49:24;;;;;;;17.52;12.70;;;6.40;63.60;;;;;;4996578;28;20048;-76
2022/12/04 09:52:19;;;;;;;17.50;12.65;;;6.40;63.50;;;;;;5003532;28;20543;-77
2022/12/04 09:55:10;;;;;;;20.10;13.77;;;6.40;63.50;;;;;;5004738;28;20191;-75
2022/12/04 09:57:58;;;;;;;19.35;12.57;;;6.50;63.50;;;;;;5005511;28;20049;-76
2022/12/04 10:00:46;;;;;;;19.38;13.65;;;6.50;63.50;;;;;;5002819;28;20066;-76
2022/12/04 10:03:30;;;;;;;20.13;13.75;;;6.50;63.50;;;;;;4995643;28;20050;-76
2022/12/04 10:06:23;;;;;;;22.20;14.25;;;6.50;63.40;;;;;;5003420;28;20409;-76
2022/12/04 10:09:24;;;;;;;20.27;13.07;;;6.60;63.60;;;;;;4988289;28;20049;-77
2022/12/04 10:12:12;;;;;;;18.13;13.23;;;6.70;63.70;;;;;;4986554;28;20443;-77
2022/12/04 10:15:02;;;;;;;19.83;13.57;;;6.80;63.60;;;;;;4984643;28;20377;-77
2022/12/04 10:18:11;;;;;;;21.15;13.55;;;6.90;63.60;;;;;;4985145;28;20397;-77
2022/12/04 10:21:35;;;;;;;22.00;14.60;;;6.90;63.40;;;;;;4984687;28;20494;-77
2022/12/04 10:24:29;;;;;;;20.50;12.73;;;7.00;63.40;;;;;;4984770;28;20037;-77
2022/12/04 10:27:30;;;;;;;22.45;14.55;;;7.00;63.30;;;;;;4996311;28;20049;-76
2022/12/04 10:30:19;;;;;;;23.15;14.30;;;7.00;63.30;;;;;;5007298;28;20684;-76
2022/12/04 10:33:13;;;;;;;21.23;14.45;;;7.00;63.60;;;;;;5003630;28;20515;-76
2022/12/04 10:35:58;;;;;;;21.42;13.82;;;7.10;64.00;;;;;;4984292;28;20521;-77
2022/12/04 10:38:54;;;;;;;21.00;14.10;;;7.10;64.00;;;;;;4993682;28;20037;-81
2022/12/04 10:41:57;;;;;;;21.30;15.45;;;7.10;64.10;;;;;;5107337;23;20146;-76
2022/12/04 10:44:42;;;;;;;19.83;14.13;;;7.00;63.90;;;;;;5002350;28;20041;-76
2022/12/04 10:47:27;;;;;;;20.65;13.73;;;7.00;63.90;;;;;;4996511;28;20180;-76
2022/12/04 10:50:17;;;;;;;19.90;15.52;;;7.00;64.00;;;;;;4995152;28;20060;-76
2022/12/04 10:53:01;;;;;;;18.67;14.07;;;7.00;64.00;;;;;;4983193;28;20069;-77
2022/12/04 10:55:46;;;;;;;21.38;14.73;;;7.00;64.00;;;;;;4985368;28;20076;-75
2022/12/04 10:58:30;;;;;;;22.60;15.10;;;7.00;64.00;;;;;;5004037;28;20436;-73
2022/12/04 11:01:16;;;;;;;23.88;15.07;;;7.00;64.00;;;;;;5001390;28;20418;-73
2022/12/04 11:04:16;;;;;;;20.35;14.70;;;7.00;64.00;;;;;;4984888;28;20049;-73
2022/12/04 11:07:04;;;;;;;21.25;15.65;;;7.00;64.00;;;;;;4990265;28;20104;-75
2022/12/04 11:10:06;;;;;;;20.65;14.77;;;7.00;64.00;;;;;;4990990;28;20038;-76
2022/12/04 11:13:00;;;;;;;25.20;16.00;;;7.00;63.90;;;;;;4988778;28;20523;-73
2022/12/04 11:15:51;;;;;;;21.73;15.45;;;7.10;64.00;;;;;;4997354;28;20296;-74
2022/12/04 11:18:49;;;;;;;25.75;16.58;;;7.10;64.00;;;;;;4989187;28;20121;-74
2022/12/04 11:21:34;;;;;;;21.20;15.23;;;7.10;64.00;;;;;;5002870;28;20096;-73
2022/12/04 11:24:27;;;;;;;24.35;16.13;;;7.10;64.00;;;;;;4986921;28;20610;-74
2022/12/04 11:27:20;;;;;;;23.80;16.35;;;7.10;63.90;;;;;;5002538;28;20044;-74
2022/12/04 11:30:14;;;;;;;23.35;16.63;;;7.10;63.90;;;;;;5002143;28;20129;-74
2022/12/04 11:32:59;;;;;;;22.48;16.35;;;7.10;63.90;;;;;;4984084;28;20064;-74
2022/12/04 11:35:51;;;;;;;20.65;14.38;;;7.10;63.80;;;;;;4996874;28;20693;-76
2022/12/04 11:38:35;;;;;;;19.77;14.77;;;7.20;64.00;;;;;;5001155;28;20044;-74
2022/12/04 11:41:27;;;;;;;20.58;14.77;;;7.20;63.90;;;;;;5003288;28;20487;-74
2022/12/04 11:44:23;;;;;;;25.10;16.23;;;7.20;63.90;;;;;;4990961;28;20109;-75
2022/12/04 11:47:17;;;;;;;23.75;15.40;;;7.20;63.80;;;;;;4993561;28;20041;-75
2022/12/04 11:50:10;;;;;;;23.33;16.63;;;7.20;63.80;;;;;;5002168;28;20061;-74
2022/12/04 11:53:13;;;;;;;23.10;16.23;;;7.30;63.90;;;;;;4985142;28;20045;-71
2022/12/04 11:56:29;;;;;;;21.77;16.55;;;7.40;64.00;;;;;;4999793;28;20057;-73
2022/12/04 11:59:26;;;;;;;22.90;15.35;;;7.50;64.00;;;;;;5004374;28;20037;-75
2022/12/04 12:02:11;;;;;;;21.92;15.15;;;7.50;63.80;;;;;;4996696;28;20049;-75
2022/12/04 12:05:14;;;;;;;21.42;15.50;;;7.60;63.90;;;;;;5012456;28;20040;-74
2022/12/04 12:08:07;;;;;;;20.10;15.27;;;7.60;63.70;;;;;;4998754;28;20153;-76
2022/12/04 12:11:23;;;;;;;19.30;14.65;;;7.70;63.90;;;;;;4992299;28;20045;-72
2022/12/04 12:14:26;;;;;;;23.02;17.50;;;7.70;63.90;;;;;;4984592;28;20097;-76
2022/12/04 12:17:20;;;;;;;23.05;15.80;;;7.80;64.00;;;;;;5002378;28;20057;-75
2022/12/04 12:20:13;;;;;;;24.58;14.88;;;7.80;63.90;;;;;;4993170;28;20436;-73
2022/12/04 12:23:27;;;;;;;20.35;14.40;;;7.80;63.80;;;;;;4998896;28;20037;-74
2022/12/04 12:26:31;;;;;;;23.58;15.98;;;7.80;63.80;;;;;;4992054;28;20045;-73
2022/12/04 12:29:28;;;;;;;20.88;14.80;;;7.80;63.80;;;;;;5001601;28;20117;-73
2022/12/04 12:32:36;;;;;;;20.90;14.73;;;7.80;63.90;;;;;;5004222;28;20076;-73
2022/12/04 12:35:50;;;;;;;24.52;15.73;;;7.80;63.90;;;;;;5005001;28;20220;-75
2022/12/04 12:38:53;;;;;;;24.63;16.27;;;7.70;63.70;;;;;;5002547;28;20567;-72
2022/12/04 12:41:43;;;;;;;23.75;16.35;;;7.80;64.00;;;;;;5006008;28;20329;-75
2022/12/04 12:44:49;;;;;;;21.65;16.50;;;7.80;63.90;;;;;;5004161;28;20076;-75
2022/12/04 12:47:41;;;;;;;21.85;16.05;;;7.80;64.00;;;;;;4986979;28;20511;-75
2022/12/04 12:50:37;;;;;;;23.15;15.65;;;7.90;64.20;;;;;;5005202;28;20056;-73
2022/12/04 12:53:27;;;;;;;23.65;15.70;;;8.00;64.30;;;;;;5005637;28;20056;-76
2022/12/04 12:56:12;;;;;;;21.38;16.58;;;8.10;64.30;;;;;;4996899;28;20409;-76
2022/12/04 12:59:02;;;;;;;25.55;16.50;;;8.10;64.20;;;;;;4993622;28;20122;-73
2022/12/04 13:02:15;;;;;;;23.45;16.10;;;8.10;64.10;;;;;;4996617;28;20057;-73
2022/12/04 13:05:05;;;;;;;23.98;16.65;;;8.20;64.20;;;;;;4987013;28;20121;-74
2022/12/04 13:08:24;;;;;;;21.40;16.13;;;8.20;64.20;;;;;;4985284;28;20116;-74
2022/12/04 13:11:20;;;;;;;23.20;17.77;;;8.20;64.10;;;;;;4990235;28;20045;-72
2022/12/04 13:14:05;;;;;;;21.67;16.17;;;8.20;64.10;;;;;;5023860;28;20048;-72
2022/12/04 13:16:59;;;;;;;24.48;16.88;;;8.20;64.10;;;;;;5022103;28;20061;-74
2022/12/04 13:19:52;;;;;;;23.00;16.67;;;8.20;64.00;;;;;;5030767;28;20037;-75
2022/12/04 13:22:58;;;;;;;26.17;17.77;;;8.20;63.90;;;;;;5006730;28;20064;-73
2022/12/04 13:26:19;;;;;;;22.83;16.35;;;8.30;64.10;;;;;;5006382;28;20554;-75
2022/12/04 13:29:41;;;;;;;25.65;17.70;;;8.30;63.90;;;;;;5006745;28;20412;-73
2022/12/04 13:32:56;;;;;;;21.88;15.88;;;8.30;63.90;;;;;;4988357;28;20069;-73
2022/12/04 13:36:04;;;;;;;22.52;16.25;;;8.30;63.90;;;;;;4996579;28;20069;-71
2022/12/04 13:39:18;;;;;;;24.60;17.05;;;8.30;63.90;;;;;;5002675;28;20037;-73
2022/12/04 13:42:04;;;;;;;;;;;8.30;63.90;;;;;;5007018;28;20060;-75
2022/12/04 13:44:58;;;;;;;25.15;16.88;;;8.30;63.90;;;;;;5017425;28;20389;-72
2022/12/04 13:47:43;;;;;;;22.50;16.08;;;8.30;63.90;;;;;;5005545;28;20641;-73
2022/12/04 13:50:31;;;;;;;24.85;17.30;;;8.30;63.90;;;;;;5005996;28;20049;-73
2022/12/04 13:53:33;;;;;;;22.33;17.55;;;8.30;63.80;;;;;;5004968;28;20092;-75
2022/12/04 13:56:28;;;;;;;25.77;18.13;;;8.30;63.90;;;;;;4999625;28;20132;-76
2022/12/04 13:59:18;;;;;;;;;;;8.30;63.80;;;;;;4996081;28;20049;-72
2022/12/04 14:02:33;;;;;;;21.15;16.33;;;8.30;63.80;;;;;;5006415;28;19948;-74
2022/12/04 14:05:26;;;;;;;25.83;18.08;;;8.40;63.90;;;;;;4996370;28;20045;-73
2022/12/04 14:08:23;;;;;;;26.17;19.05;;;8.40;63.90;;;;;;4990456;28;20405;-73
2022/12/04 14:11:18;;;;;;;25.63;18.42;;;8.40;63.80;;;;;;4994991;28;20629;-73
2022/12/04 14:14:02;;;;;;;27.50;17.92;;;8.50;63.90;;;;;;4999860;28;20036;-74
2022/12/04 14:16:48;;;;;;;23.42;17.33;;;8.50;63.80;;;;;;5000625;28;20171;-75
2022/12/04 14:19:35;;;;;;;26.15;18.60;;;8.50;63.70;;;;;;5000008;28;20125;-73
2022/12/04 14:22:26;;;;;;;24.17;18.67;;;8.50;63.60;;;;;;4984783;28;20408;-76
2022/12/04 14:25:13;;;;;;;27.38;20.00;;;8.40;63.50;;;;;;5006698;28;20040;-75
2022/12/04 14:27:58;;;;;;;27.25;19.45;;;8.40;63.50;;;;;;5006395;28;20044;-71
2022/12/04 14:30:43;;;;;;;27.15;18.60;;;8.30;63.50;;;;;;5005672;28;20360;-74
2022/12/04 14:33:31;;;;;;;23.45;17.80;;;8.30;63.50;;;;;;4986630;28;20084;-73
2022/12/04 14:36:32;;;;;;;26.08;18.15;;;8.20;63.40;;;;;;4986018;28;20057;-75
2022/12/04 14:39:42;;;;;;;29.33;19.77;;;8.20;63.50;;;;;;4998704;28;20040;-73
2022/12/04 14:42:33;;;;;;;26.23;18.70;;;8.20;63.50;;;;;;5005540;28;20136;-71
2022/12/04 14:45:35;;;;;;;24.90;17.52;;;8.10;63.40;;;;;;4988990;28;20673;-74
2022/12/04 14:48:29;;;;;;;28.33;18.80;;;8.10;63.40;;;;;;5004867;28;20125;-73
2022/12/04 14:52:00;;;;;;;26.10;18.70;;;8.10;63.50;;;;;;5005168;28;20119;-76
2022/12/04 14:54:50;;;;;;;25.38;18.35;;;8.10;63.50;;;;;;4969957;28;20125;-75
2022/12/04 14:57:58;;;;;;;25.75;18.48;;;8.00;63.30;;;;;;4964096;28;20572;-73